sensor_id;sensor_type;location;lat;lon;timestamp;P1;durP1;ratioP1;P2;durP2;ratioP2
2928;SDS011;1474;51.460;7.150;2024-03-06T00:00:53;20.73;;;12.57;;
2928;SDS011;1474;51.460;7.150;2024-03-06T00:03:37;20.27;;;12.63;;
2928;SDS011;1474;51.460;7.150;2024-03-06T00:06:22;21.55;;;12.68;;
2928;SDS011;1474;51.460;7.150;2024-03-06T00:09:08;20.92;;;13.05;;
2928;SDS011;1474;51.460;7.150;2024-03-06T00:11:53;20.65;;;12.30;;
2928;SDS011;1474;51.460;7.150;2024-03-06T00:14:38;16.15;;;11.10;;
2928;SDS011;1474;51.460;7.150;2024-03-06T00:17:22;22.23;;;13.25;;
2928;SDS011;1474;51.460;7.150;2024-03-06T00:20:07;17.13;;;12.05;;
2928;SDS011;1474;51.460;7.150;2024-03-06T00:22:54;19.08;;;12.63;;
2928;SDS011;1474;51.460;7.150;2024-03-06T00:25:39;20.10;;;11.90;;
2928;SDS011;1474;51.460;7.150;2024-03-06T00:28:23;21.83;;;12.80;;
2928;SDS011;1474;51.460;7.150;2024-03-06T00:31:08;19.25;;;12.05;;
2928;SDS011;1474;51.460;7.150;2024-03-06T00:33:53;20.73;;;12.57;;
2928;SDS011;1474;51.460;7.150;2024-03-06T00:36:37;18.65;;;11.13;;
2928;SDS011;1474;51.460;7.150;2024-03-06T00:39:22;21.08;;;13.57;;
2928;SDS011;1474;51.460;7.150;2024-03-06T00:42:06;18.10;;;11.13;;
2928;SDS011;1474;51.460;7.150;2024-03-06T00:44:52;25.27;;;12.98;;
2928;SDS011;1474;51.460;7.150;2024-03-06T00:47:37;18.67;;;11.52;;
2928;SDS011;1474;51.460;7.150;2024-03-06T00:50:21;20.38;;;13.30;;
2928;SDS011;1474;51.460;7.150;2024-03-06T00:53:06;18.20;;;11.23;;
2928;SDS011;1474;51.460;7.150;2024-03-06T00:55:52;18.35;;;12.10;;
2928;SDS011;1474;51.460;7.150;2024-03-06T00:58:37;19.33;;;11.40;;
2928;SDS011;1474;51.460;7.150;2024-03-06T01:01:21;21.02;;;12.93;;
2928;SDS011;1474;51.460;7.150;2024-03-06T01:04:06;17.60;;;11.27;;
2928;SDS011;1474;51.460;7.150;2024-03-06T01:06:51;16.90;;;10.65;;
2928;SDS011;1474;51.460;7.150;2024-03-06T01:09:35;14.20;;;10.95;;
2928;SDS011;1474;51.460;7.150;2024-03-06T01:12:20;15.77;;;10.38;;
2928;SDS011;1474;51.460;7.150;2024-03-06T01:15:05;14.23;;;10.85;;
2928;SDS011;1474;51.460;7.150;2024-03-06T01:17:51;14.55;;;9.48;;
2928;SDS011;1474;51.460;7.150;2024-03-06T01:20:36;13.93;;;9.10;;
2928;SDS011;1474;51.460;7.150;2024-03-06T01:23:21;14.95;;;10.00;;
2928;SDS011;1474;51.460;7.150;2024-03-06T01:26:05;12.75;;;9.43;;
2928;SDS011;1474;51.460;7.150;2024-03-06T01:28:50;16.13;;;10.30;;
2928;SDS011;1474;51.460;7.150;2024-03-06T01:31:35;12.18;;;8.90;;
2928;SDS011;1474;51.460;7.150;2024-03-06T01:34:19;14.00;;;9.70;;
2928;SDS011;1474;51.460;7.150;2024-03-06T01:37:04;16.15;;;10.70;;
2928;SDS011;1474;51.460;7.150;2024-03-06T01:39:48;13.80;;;9.07;;
2928;SDS011;1474;51.460;7.150;2024-03-06T01:42:33;17.50;;;10.23;;
2928;SDS011;1474;51.460;7.150;2024-03-06T01:45:18;14.07;;;9.32;;
2928;SDS011;1474;51.460;7.150;2024-03-06T01:48:03;16.60;;;9.88;;
2928;SDS011;1474;51.460;7.150;2024-03-06T01:50:55;17.10;;;11.05;;
2928;SDS011;1474;51.460;7.150;2024-03-06T01:53:40;14.05;;;9.95;;
2928;SDS011;1474;51.460;7.150;2024-03-06T01:56:26;15.65;;;9.93;;
2928;SDS011;1474;51.460;7.150;2024-03-06T01:59:13;12.90;;;9.63;;
2928;SDS011;1474;51.460;7.150;2024-03-06T02:01:59;15.95;;;10.30;;
2928;SDS011;1474;51.460;7.150;2024-03-06T02:04:47;19.10;;;10.95;;
2928;SDS011;1474;51.460;7.150;2024-03-06T02:07:32;17.02;;;9.15;;
2928;SDS011;1474;51.460;7.150;2024-03-06T02:10:17;15.27;;;9.38;;
2928;SDS011;1474;51.460;7.150;2024-03-06T02:13:02;14.68;;;9.48;;
2928;SDS011;1474;51.460;7.150;2024-03-06T02:15:47;17.80;;;9.63;;
2928;SDS011;1474;51.460;7.150;2024-03-06T02:18:32;15.73;;;10.88;;
2928;SDS011;1474;51.460;7.150;2024-03-06T02:21:18;17.67;;;9.52;;
2928;SDS011;1474;51.460;7.150;2024-03-06T02:24:02;14.82;;;9.07;;
2928;SDS011;1474;51.460;7.150;2024-03-06T02:26:47;18.55;;;11.07;;
2928;SDS011;1474;51.460;7.150;2024-03-06T02:29:32;15.02;;;9.85;;
2928;SDS011;1474;51.460;7.150;2024-03-06T02:32:17;16.60;;;9.10;;
2928;SDS011;1474;51.460;7.150;2024-03-06T02:35:01;15.65;;;10.38;;
2928;SDS011;1474;51.460;7.150;2024-03-06T02:37:47;14.77;;;9.73;;
2928;SDS011;1474;51.460;7.150;2024-03-06T02:40:32;14.27;;;9.38;;
2928;SDS011;1474;51.460;7.150;2024-03-06T02:43:20;19.30;;;11.38;;
2928;SDS011;1474;51.460;7.150;2024-03-06T02:46:04;15.80;;;9.63;;
2928;SDS011;1474;51.460;7.150;2024-03-06T02:48:49;18.45;;;11.18;;
2928;SDS011;1474;51.460;7.150;2024-03-06T02:51:34;18.40;;;10.13;;
2928;SDS011;1474;51.460;7.150;2024-03-06T02:54:18;16.83;;;9.93;;
2928;SDS011;1474;51.460;7.150;2024-03-06T02:57:03;17.10;;;10.20;;
2928;SDS011;1474;51.460;7.150;2024-03-06T02:59:48;19.70;;;10.35;;
2928;SDS011;1474;51.460;7.150;2024-03-06T03:02:33;16.40;;;10.52;;
2928;SDS011;1474;51.460;7.150;2024-03-06T03:05:18;16.92;;;10.85;;
2928;SDS011;1474;51.460;7.150;2024-03-06T03:08:03;16.98;;;11.25;;
2928;SDS011;1474;51.460;7.150;2024-03-06T03:10:49;21.30;;;11.10;;
2928;SDS011;1474;51.460;7.150;2024-03-06T03:13:34;15.50;;;10.27;;
2928;SDS011;1474;51.460;7.150;2024-03-06T03:16:19;17.15;;;10.82;;
2928;SDS011;1474;51.460;7.150;2024-03-06T03:19:04;17.27;;;9.50;;
2928;SDS011;1474;51.460;7.150;2024-03-06T03:21:49;18.63;;;9.48;;
2928;SDS011;1474;51.460;7.150;2024-03-06T03:24:33;15.18;;;9.57;;
2928;SDS011;1474;51.460;7.150;2024-03-06T03:27:18;14.43;;;9.63;;
2928;SDS011;1474;51.460;7.150;2024-03-06T03:30:03;15.52;;;9.27;;
2928;SDS011;1474;51.460;7.150;2024-03-06T03:32:49;14.60;;;8.48;;
2928;SDS011;1474;51.460;7.150;2024-03-06T03:35:34;13.63;;;8.70;;
2928;SDS011;1474;51.460;7.150;2024-03-06T03:38:18;14.77;;;9.90;;
2928;SDS011;1474;51.460;7.150;2024-03-06T03:41:03;14.15;;;8.93;;
2928;SDS011;1474;51.460;7.150;2024-03-06T03:43:47;12.93;;;9.48;;
2928;SDS011;1474;51.460;7.150;2024-03-06T03:46:32;15.30;;;9.82;;
2928;SDS011;1474;51.460;7.150;2024-03-06T03:49:17;18.70;;;11.45;;
2928;SDS011;1474;51.460;7.150;2024-03-06T03:52:01;16.05;;;11.10;;
2928;SDS011;1474;51.460;7.150;2024-03-06T03:54:46;15.43;;;10.35;;
2928;SDS011;1474;51.460;7.150;2024-03-06T03:57:31;14.77;;;10.88;;
2928;SDS011;1474;51.460;7.150;2024-03-06T04:00:19;17.55;;;10.35;;
2928;SDS011;1474;51.460;7.150;2024-03-06T04:03:06;16.90;;;10.45;;
2928;SDS011;1474;51.460;7.150;2024-03-06T04:05:51;13.90;;;9.25;;
2928;SDS011;1474;51.460;7.150;2024-03-06T04:08:36;17.50;;;10.77;;
2928;SDS011;1474;51.460;7.150;2024-03-06T04:11:25;16.35;;;9.90;;
2928;SDS011;1474;51.460;7.150;2024-03-06T04:14:09;16.15;;;10.82;;
2928;SDS011;1474;51.460;7.150;2024-03-06T04:16:54;17.15;;;10.57;;
2928;SDS011;1474;51.460;7.150;2024-03-06T04:19:38;20.70;;;11.23;;
2928;SDS011;1474;51.460;7.150;2024-03-06T04:22:23;19.27;;;10.70;;
2928;SDS011;1474;51.460;7.150;2024-03-06T04:25:08;15.10;;;9.45;;
2928;SDS011;1474;51.460;7.150;2024-03-06T04:27:53;19.27;;;11.35;;
2928;SDS011;1474;51.460;7.150;2024-03-06T04:30:37;20.98;;;12.23;;
2928;SDS011;1474;51.460;7.150;2024-03-06T04:33:22;18.67;;;11.63;;
2928;SDS011;1474;51.460;7.150;2024-03-06T04:36:06;16.02;;;10.43;;
2928;SDS011;1474;51.460;7.150;2024-03-06T04:38:52;17.92;;;11.35;;
2928;SDS011;1474;51.460;7.150;2024-03-06T04:41:39;17.38;;;11.30;;
2928;SDS011;1474;51.460;7.150;2024-03-06T04:44:24;18.35;;;12.05;;
2928;SDS011;1474;51.460;7.150;2024-03-06T04:47:11;19.48;;;12.68;;
2928;SDS011;1474;51.460;7.150;2024-03-06T04:49:56;20.58;;;12.18;;
2928;SDS011;1474;51.460;7.150;2024-03-06T04:52:41;19.33;;;11.18;;
2928;SDS011;1474;51.460;7.150;2024-03-06T04:55:26;20.90;;;13.25;;
2928;SDS011;1474;51.460;7.150;2024-03-06T04:58:11;20.80;;;12.20;;
2928;SDS011;1474;51.460;7.150;2024-03-06T05:00:56;21.13;;;12.52;;
2928;SDS011;1474;51.460;7.150;2024-03-06T05:03:40;19.40;;;11.65;;
2928;SDS011;1474;51.460;7.150;2024-03-06T05:06:25;18.20;;;11.65;;
2928;SDS011;1474;51.460;7.150;2024-03-06T05:09:10;20.73;;;12.63;;
2928;SDS011;1474;51.460;7.150;2024-03-06T05:11:55;22.17;;;12.30;;
2928;SDS011;1474;51.460;7.150;2024-03-06T05:14:42;20.83;;;11.10;;
2928;SDS011;1474;51.460;7.150;2024-03-06T05:17:27;20.20;;;10.70;;
2928;SDS011;1474;51.460;7.150;2024-03-06T05:20:11;19.08;;;11.52;;
2928;SDS011;1474;51.460;7.150;2024-03-06T05:23:00;15.88;;;10.52;;
2928;SDS011;1474;51.460;7.150;2024-03-06T05:25:44;20.60;;;11.48;;
2928;SDS011;1474;51.460;7.150;2024-03-06T05:28:29;20.40;;;11.32;;
2928;SDS011;1474;51.460;7.150;2024-03-06T05:31:15;20.70;;;12.70;;
2928;SDS011;1474;51.460;7.150;2024-03-06T05:34:07;26.13;;;13.27;;
2928;SDS011;1474;51.460;7.150;2024-03-06T05:36:52;22.52;;;12.35;;
2928;SDS011;1474;51.460;7.150;2024-03-06T05:39:37;20.58;;;12.50;;
2928;SDS011;1474;51.460;7.150;2024-03-06T05:42:21;20.58;;;11.48;;
2928;SDS011;1474;51.460;7.150;2024-03-06T05:45:06;24.80;;;13.43;;
2928;SDS011;1474;51.460;7.150;2024-03-06T05:47:54;23.92;;;12.00;;
2928;SDS011;1474;51.460;7.150;2024-03-06T05:50:38;21.13;;;11.88;;
2928;SDS011;1474;51.460;7.150;2024-03-06T05:53:23;23.17;;;12.50;;
2928;SDS011;1474;51.460;7.150;2024-03-06T05:56:07;24.38;;;12.80;;
2928;SDS011;1474;51.460;7.150;2024-03-06T05:58:52;23.52;;;12.30;;
2928;SDS011;1474;51.460;7.150;2024-03-06T06:01:38;18.98;;;11.82;;
2928;SDS011;1474;51.460;7.150;2024-03-06T06:04:05;21.85;;;11.63;;
2928;SDS011;1474;51.460;7.150;2024-03-06T06:06:31;27.13;;;11.45;;
2928;SDS011;1474;51.460;7.150;2024-03-06T06:09:00;22.10;;;12.25;;
2928;SDS011;1474;51.460;7.150;2024-03-06T06:11:30;20.02;;;11.82;;
2928;SDS011;1474;51.460;7.150;2024-03-06T06:13:56;26.52;;;14.38;;
2928;SDS011;1474;51.460;7.150;2024-03-06T06:16:22;27.13;;;12.18;;
2928;SDS011;1474;51.460;7.150;2024-03-06T06:18:51;23.85;;;13.10;;
2928;SDS011;1474;51.460;7.150;2024-03-06T06:21:17;23.23;;;12.52;;
2928;SDS011;1474;51.460;7.150;2024-03-06T06:23:43;24.65;;;13.13;;
2928;SDS011;1474;51.460;7.150;2024-03-06T06:26:09;19.15;;;12.43;;
2928;SDS011;1474;51.460;7.150;2024-03-06T06:28:36;20.55;;;11.45;;
2928;SDS011;1474;51.460;7.150;2024-03-06T06:31:02;25.63;;;12.40;;
2928;SDS011;1474;51.460;7.150;2024-03-06T06:33:29;20.83;;;12.23;;
2928;SDS011;1474;51.460;7.150;2024-03-06T06:35:55;22.27;;;12.85;;
2928;SDS011;1474;51.460;7.150;2024-03-06T06:38:21;22.75;;;12.35;;
2928;SDS011;1474;51.460;7.150;2024-03-06T06:40:47;26.13;;;12.43;;
2928;SDS011;1474;51.460;7.150;2024-03-06T06:43:13;21.92;;;12.50;;
2928;SDS011;1474;51.460;7.150;2024-03-06T06:45:40;26.88;;;13.75;;
2928;SDS011;1474;51.460;7.150;2024-03-06T06:48:06;25.13;;;12.95;;
2928;SDS011;1474;51.460;7.150;2024-03-06T06:50:34;28.25;;;14.05;;
2928;SDS011;1474;51.460;7.150;2024-03-06T06:53:06;26.15;;;13.90;;
2928;SDS011;1474;51.460;7.150;2024-03-06T06:55:38;24.13;;;13.20;;
2928;SDS011;1474;51.460;7.150;2024-03-06T06:58:04;26.98;;;14.23;;
2928;SDS011;1474;51.460;7.150;2024-03-06T07:00:31;22.35;;;11.82;;
2928;SDS011;1474;51.460;7.150;2024-03-06T07:02:58;23.08;;;13.27;;
2928;SDS011;1474;51.460;7.150;2024-03-06T07:05:25;25.75;;;13.70;;
2928;SDS011;1474;51.460;7.150;2024-03-06T07:07:51;25.13;;;12.88;;
2928;SDS011;1474;51.460;7.150;2024-03-06T07:10:18;26.23;;;12.95;;
2928;SDS011;1474;51.460;7.150;2024-03-06T07:12:45;23.23;;;13.68;;
2928;SDS011;1474;51.460;7.150;2024-03-06T07:15:11;23.30;;;12.93;;
2928;SDS011;1474;51.460;7.150;2024-03-06T07:17:37;30.90;;;14.23;;
2928;SDS011;1474;51.460;7.150;2024-03-06T07:20:06;23.83;;;13.23;;
2928;SDS011;1474;51.460;7.150;2024-03-06T07:22:34;27.08;;;14.85;;
2928;SDS011;1474;51.460;7.150;2024-03-06T07:25:00;29.38;;;15.05;;
2928;SDS011;1474;51.460;7.150;2024-03-06T07:27:27;29.17;;;14.18;;
2928;SDS011;1474;51.460;7.150;2024-03-06T07:29:53;26.10;;;13.38;;
2928;SDS011;1474;51.460;7.150;2024-03-06T07:32:19;28.60;;;15.85;;
2928;SDS011;1474;51.460;7.150;2024-03-06T07:34:45;29.25;;;13.90;;
2928;SDS011;1474;51.460;7.150;2024-03-06T07:37:11;34.85;;;17.10;;
2928;SDS011;1474;51.460;7.150;2024-03-06T07:39:39;26.65;;;15.52;;
2928;SDS011;1474;51.460;7.150;2024-03-06T07:42:06;31.63;;;15.82;;
2928;SDS011;1474;51.460;7.150;2024-03-06T07:44:32;33.33;;;14.63;;
2928;SDS011;1474;51.460;7.150;2024-03-06T07:46:58;37.88;;;17.83;;
2928;SDS011;1474;51.460;7.150;2024-03-06T07:49:24;36.42;;;18.05;;
2928;SDS011;1474;51.460;7.150;2024-03-06T07:51:50;35.83;;;16.90;;
2928;SDS011;1474;51.460;7.150;2024-03-06T07:54:16;36.13;;;17.40;;
2928;SDS011;1474;51.460;7.150;2024-03-06T07:56:42;48.92;;;20.13;;
2928;SDS011;1474;51.460;7.150;2024-03-06T07:59:08;34.70;;;17.58;;
2928;SDS011;1474;51.460;7.150;2024-03-06T08:01:37;44.90;;;20.88;;
2928;SDS011;1474;51.460;7.150;2024-03-06T08:04:03;43.63;;;20.30;;
2928;SDS011;1474;51.460;7.150;2024-03-06T08:06:29;54.47;;;21.58;;
2928;SDS011;1474;51.460;7.150;2024-03-06T08:08:58;48.38;;;21.85;;
2928;SDS011;1474;51.460;7.150;2024-03-06T08:11:24;45.83;;;21.02;;
2928;SDS011;1474;51.460;7.150;2024-03-06T08:13:56;47.58;;;22.15;;
2928;SDS011;1474;51.460;7.150;2024-03-06T08:16:22;49.53;;;22.30;;
2928;SDS011;1474;51.460;7.150;2024-03-06T08:18:48;40.42;;;20.23;;
2928;SDS011;1474;51.460;7.150;2024-03-06T08:21:14;38.47;;;19.33;;
2928;SDS011;1474;51.460;7.150;2024-03-06T08:23:40;36.83;;;17.45;;
2928;SDS011;1474;51.460;7.150;2024-03-06T08:26:07;33.78;;;16.88;;
2928;SDS011;1474;51.460;7.150;2024-03-06T08:28:33;36.05;;;17.50;;
2928;SDS011;1474;51.460;7.150;2024-03-06T08:30:59;32.83;;;16.30;;
2928;SDS011;1474;51.460;7.150;2024-03-06T08:33:26;34.38;;;18.65;;
2928;SDS011;1474;51.460;7.150;2024-03-06T08:35:52;35.38;;;19.27;;
2928;SDS011;1474;51.460;7.150;2024-03-06T08:38:17;48.00;;;25.70;;
2928;SDS011;1474;51.460;7.150;2024-03-06T08:40:44;47.88;;;24.35;;
2928;SDS011;1474;51.460;7.150;2024-03-06T08:43:11;43.17;;;24.45;;
2928;SDS011;1474;51.460;7.150;2024-03-06T08:45:38;59.42;;;30.33;;
2928;SDS011;1474;51.460;7.150;2024-03-06T08:48:04;53.50;;;26.90;;
2928;SDS011;1474;51.460;7.150;2024-03-06T08:50:30;41.90;;;24.23;;
2928;SDS011;1474;51.460;7.150;2024-03-06T08:52:56;37.95;;;19.98;;
2928;SDS011;1474;51.460;7.150;2024-03-06T08:55:22;37.97;;;19.00;;
2928;SDS011;1474;51.460;7.150;2024-03-06T08:57:48;27.65;;;16.58;;
2928;SDS011;1474;51.460;7.150;2024-03-06T09:00:15;29.38;;;15.85;;
2928;SDS011;1474;51.460;7.150;2024-03-06T09:02:42;27.98;;;16.02;;
2928;SDS011;1474;51.460;7.150;2024-03-06T09:05:08;33.50;;;16.45;;
2928;SDS011;1474;51.460;7.150;2024-03-06T09:07:38;29.75;;;15.73;;
2928;SDS011;1474;51.460;7.150;2024-03-06T09:10:14;33.10;;;18.42;;
2928;SDS011;1474;51.460;7.150;2024-03-06T09:12:40;35.15;;;17.33;;
2928;SDS011;1474;51.460;7.150;2024-03-06T09:15:07;28.55;;;15.73;;
2928;SDS011;1474;51.460;7.150;2024-03-06T09:17:33;28.33;;;15.25;;
2928;SDS011;1474;51.460;7.150;2024-03-06T09:19:59;29.60;;;15.88;;
2928;SDS011;1474;51.460;7.150;2024-03-06T09:22:34;27.48;;;15.82;;
2928;SDS011;1474;51.460;7.150;2024-03-06T09:25:01;30.00;;;16.35;;
2928;SDS011;1474;51.460;7.150;2024-03-06T09:27:27;28.73;;;15.68;;
2928;SDS011;1474;51.460;7.150;2024-03-06T09:29:53;30.25;;;15.25;;
2928;SDS011;1474;51.460;7.150;2024-03-06T09:32:19;27.50;;;15.50;;
2928;SDS011;1474;51.460;7.150;2024-03-06T09:34:47;26.08;;;15.20;;
2928;SDS011;1474;51.460;7.150;2024-03-06T09:37:13;27.08;;;15.55;;
2928;SDS011;1474;51.460;7.150;2024-03-06T09:39:39;23.77;;;14.23;;
2928;SDS011;1474;51.460;7.150;2024-03-06T09:42:05;24.23;;;15.75;;
2928;SDS011;1474;51.460;7.150;2024-03-06T09:44:32;24.83;;;15.52;;
2928;SDS011;1474;51.460;7.150;2024-03-06T09:46:59;25.45;;;14.98;;
2928;SDS011;1474;51.460;7.150;2024-03-06T09:49:25;28.27;;;14.50;;
2928;SDS011;1474;51.460;7.150;2024-03-06T09:51:51;24.90;;;15.13;;
2928;SDS011;1474;51.460;7.150;2024-03-06T09:54:20;22.98;;;14.25;;
2928;SDS011;1474;51.460;7.150;2024-03-06T09:56:47;25.85;;;15.70;;
2928;SDS011;1474;51.460;7.150;2024-03-06T09:59:13;31.70;;;16.33;;
2928;SDS011;1474;51.460;7.150;2024-03-06T10:06:44;25.45;;;15.82;;
2928;SDS011;1474;51.460;7.150;2024-03-06T10:09:11;25.40;;;16.88;;
2928;SDS011;1474;51.460;7.150;2024-03-06T10:11:38;29.77;;;17.48;;
2928;SDS011;1474;51.460;7.150;2024-03-06T10:14:05;30.17;;;18.05;;
2928;SDS011;1474;51.460;7.150;2024-03-06T10:16:31;29.02;;;17.38;;
2928;SDS011;1474;51.460;7.150;2024-03-06T10:18:58;29.20;;;17.02;;
2928;SDS011;1474;51.460;7.150;2024-03-06T10:21:41;32.80;;;18.70;;
2928;SDS011;1474;51.460;7.150;2024-03-06T10:24:09;30.73;;;17.90;;
2928;SDS011;1474;51.460;7.150;2024-03-06T10:26:36;29.70;;;17.88;;
2928;SDS011;1474;51.460;7.150;2024-03-06T10:29:02;25.65;;;16.10;;
2928;SDS011;1474;51.460;7.150;2024-03-06T10:31:28;27.20;;;16.25;;
2928;SDS011;1474;51.460;7.150;2024-03-06T10:33:54;27.88;;;16.73;;
2928;SDS011;1474;51.460;7.150;2024-03-06T10:36:20;28.88;;;17.83;;
2928;SDS011;1474;51.460;7.150;2024-03-06T10:38:46;29.48;;;17.23;;
2928;SDS011;1474;51.460;7.150;2024-03-06T10:41:14;25.95;;;16.00;;
2928;SDS011;1474;51.460;7.150;2024-03-06T10:43:41;27.60;;;16.38;;
2928;SDS011;1474;51.460;7.150;2024-03-06T10:46:09;25.52;;;15.93;;
2928;SDS011;1474;51.460;7.150;2024-03-06T10:48:36;24.38;;;16.13;;
2928;SDS011;1474;51.460;7.150;2024-03-06T10:51:03;25.88;;;16.00;;
2928;SDS011;1474;51.460;7.150;2024-03-06T10:53:30;28.67;;;16.38;;
2928;SDS011;1474;51.460;7.150;2024-03-06T10:55:57;26.13;;;16.20;;
2928;SDS011;1474;51.460;7.150;2024-03-06T10:58:23;25.33;;;15.88;;
2928;SDS011;1474;51.460;7.150;2024-03-06T11:00:49;24.27;;;14.93;;
2928;SDS011;1474;51.460;7.150;2024-03-06T11:03:17;27.55;;;17.00;;
2928;SDS011;1474;51.460;7.150;2024-03-06T11:05:43;27.02;;;15.43;;
2928;SDS011;1474;51.460;7.150;2024-03-06T11:08:12;24.25;;;15.82;;
2928;SDS011;1474;51.460;7.150;2024-03-06T11:10:39;23.58;;;14.95;;
2928;SDS011;1474;51.460;7.150;2024-03-06T11:13:09;25.50;;;16.48;;
2928;SDS011;1474;51.460;7.150;2024-03-06T11:15:47;25.25;;;14.65;;
2928;SDS011;1474;51.460;7.150;2024-03-06T11:21:38;21.80;;;13.05;;
2928;SDS011;1474;51.460;7.150;2024-03-06T11:26:34;23.15;;;13.70;;
2928;SDS011;1474;51.460;7.150;2024-03-06T11:29:01;19.00;;;13.13;;
2928;SDS011;1474;51.460;7.150;2024-03-06T11:31:27;17.70;;;11.95;;
2928;SDS011;1474;51.460;7.150;2024-03-06T11:33:53;17.25;;;12.75;;
2928;SDS011;1474;51.460;7.150;2024-03-06T11:36:26;18.53;;;12.40;;
2928;SDS011;1474;51.460;7.150;2024-03-06T11:38:56;19.75;;;12.23;;
2928;SDS011;1474;51.460;7.150;2024-03-06T11:41:24;22.02;;;14.77;;
2928;SDS011;1474;51.460;7.150;2024-03-06T11:43:50;20.83;;;14.10;;
2928;SDS011;1474;51.460;7.150;2024-03-06T11:46:18;19.15;;;13.55;;
2928;SDS011;1474;51.460;7.150;2024-03-06T11:49:03;24.02;;;14.98;;
2928;SDS011;1474;51.460;7.150;2024-03-06T11:51:30;20.45;;;14.02;;
2928;SDS011;1474;51.460;7.150;2024-03-06T11:53:56;20.20;;;13.15;;
2928;SDS011;1474;51.460;7.150;2024-03-06T11:56:22;18.35;;;12.35;;
2928;SDS011;1474;51.460;7.150;2024-03-06T11:58:47;16.30;;;11.02;;
2928;SDS011;1474;51.460;7.150;2024-03-06T12:01:13;17.20;;;11.65;;
2928;SDS011;1474;51.460;7.150;2024-03-06T12:03:41;17.55;;;11.25;;
2928;SDS011;1474;51.460;7.150;2024-03-06T12:06:08;19.13;;;12.68;;
2928;SDS011;1474;51.460;7.150;2024-03-06T12:08:34;20.50;;;13.90;;
2928;SDS011;1474;51.460;7.150;2024-03-06T12:11:04;17.55;;;13.00;;
2928;SDS011;1474;51.460;7.150;2024-03-06T12:13:30;22.10;;;14.82;;
2928;SDS011;1474;51.460;7.150;2024-03-06T12:15:57;20.98;;;14.20;;
2928;SDS011;1474;51.460;7.150;2024-03-06T12:18:24;21.35;;;15.45;;
2928;SDS011;1474;51.460;7.150;2024-03-06T12:20:50;22.75;;;15.30;;
2928;SDS011;1474;51.460;7.150;2024-03-06T12:23:22;21.67;;;14.55;;
2928;SDS011;1474;51.460;7.150;2024-03-06T12:25:51;20.77;;;15.20;;
2928;SDS011;1474;51.460;7.150;2024-03-06T12:28:23;21.17;;;13.38;;
2928;SDS011;1474;51.460;7.150;2024-03-06T12:30:50;20.48;;;14.35;;
2928;SDS011;1474;51.460;7.150;2024-03-06T12:33:18;22.65;;;14.00;;
2928;SDS011;1474;51.460;7.150;2024-03-06T12:35:46;19.92;;;12.77;;
2928;SDS011;1474;51.460;7.150;2024-03-06T12:38:15;18.75;;;12.65;;
2928;SDS011;1474;51.460;7.150;2024-03-06T12:40:50;16.70;;;12.32;;
2928;SDS011;1474;51.460;7.150;2024-03-06T12:43:16;16.45;;;11.20;;
2928;SDS011;1474;51.460;7.150;2024-03-06T12:45:42;18.60;;;12.90;;
2928;SDS011;1474;51.460;7.150;2024-03-06T12:48:08;18.13;;;11.65;;
2928;SDS011;1474;51.460;7.150;2024-03-06T12:50:34;16.10;;;11.50;;
2928;SDS011;1474;51.460;7.150;2024-03-06T12:53:00;16.92;;;11.32;;
2928;SDS011;1474;51.460;7.150;2024-03-06T12:55:29;15.32;;;11.30;;
2928;SDS011;1474;51.460;7.150;2024-03-06T12:57:55;18.88;;;12.65;;
2928;SDS011;1474;51.460;7.150;2024-03-06T13:00:21;15.15;;;10.60;;
2928;SDS011;1474;51.460;7.150;2024-03-06T13:02:47;14.95;;;10.55;;
2928;SDS011;1474;51.460;7.150;2024-03-06T13:05:13;17.05;;;10.80;;
2928;SDS011;1474;51.460;7.150;2024-03-06T13:07:39;15.57;;;10.63;;
2928;SDS011;1474;51.460;7.150;2024-03-06T13:10:07;19.30;;;13.40;;
2928;SDS011;1474;51.460;7.150;2024-03-06T13:12:35;21.65;;;13.98;;
2928;SDS011;1474;51.460;7.150;2024-03-06T13:15:01;20.55;;;14.38;;
2928;SDS011;1474;51.460;7.150;2024-03-06T13:17:28;23.77;;;14.43;;
2928;SDS011;1474;51.460;7.150;2024-03-06T13:19:54;19.63;;;14.18;;
2928;SDS011;1474;51.460;7.150;2024-03-06T13:22:21;20.08;;;14.25;;
2928;SDS011;1474;51.460;7.150;2024-03-06T13:24:47;19.48;;;13.70;;
2928;SDS011;1474;51.460;7.150;2024-03-06T13:27:13;19.25;;;14.50;;
2928;SDS011;1474;51.460;7.150;2024-03-06T13:29:39;18.75;;;14.23;;
2928;SDS011;1474;51.460;7.150;2024-03-06T13:32:08;18.02;;;13.43;;
2928;SDS011;1474;51.460;7.150;2024-03-06T13:34:34;21.40;;;14.48;;
2928;SDS011;1474;51.460;7.150;2024-03-06T13:37:00;20.40;;;15.02;;
2928;SDS011;1474;51.460;7.150;2024-03-06T13:39:26;20.00;;;15.55;;
2928;SDS011;1474;51.460;7.150;2024-03-06T13:41:52;22.52;;;16.65;;
2928;SDS011;1474;51.460;7.150;2024-03-06T13:44:18;20.10;;;14.88;;
2928;SDS011;1474;51.460;7.150;2024-03-06T13:46:46;21.33;;;15.65;;
2928;SDS011;1474;51.460;7.150;2024-03-06T13:49:33;23.15;;;16.17;;
2928;SDS011;1474;51.460;7.150;2024-03-06T13:51:58;20.58;;;16.08;;
2928;SDS011;1474;51.460;7.150;2024-03-06T13:54:24;25.13;;;18.08;;
2928;SDS011;1474;51.460;7.150;2024-03-06T13:56:50;23.40;;;16.60;;
2928;SDS011;1474;51.460;7.150;2024-03-06T13:59:16;24.25;;;17.90;;
2928;SDS011;1474;51.460;7.150;2024-03-06T14:01:42;23.17;;;17.15;;
2928;SDS011;1474;51.460;7.150;2024-03-06T14:04:08;24.83;;;16.17;;
2928;SDS011;1474;51.460;7.150;2024-03-06T14:06:34;23.40;;;16.70;;
2928;SDS011;1474;51.460;7.150;2024-03-06T14:09:00;25.15;;;17.65;;
2928;SDS011;1474;51.460;7.150;2024-03-06T14:11:26;23.33;;;16.05;;
2928;SDS011;1474;51.460;7.150;2024-03-06T14:13:52;25.05;;;17.40;;
2928;SDS011;1474;51.460;7.150;2024-03-06T14:16:19;24.42;;;17.38;;
2928;SDS011;1474;51.460;7.150;2024-03-06T14:18:45;25.33;;;17.80;;
2928;SDS011;1474;51.460;7.150;2024-03-06T14:21:11;24.98;;;17.55;;
2928;SDS011;1474;51.460;7.150;2024-03-06T14:23:37;19.40;;;14.93;;
2928;SDS011;1474;51.460;7.150;2024-03-06T14:26:03;20.00;;;14.73;;
2928;SDS011;1474;51.460;7.150;2024-03-06T14:28:29;20.40;;;15.23;;
2928;SDS011;1474;51.460;7.150;2024-03-06T14:30:55;20.48;;;14.48;;
2928;SDS011;1474;51.460;7.150;2024-03-06T14:33:22;18.50;;;14.45;;
2928;SDS011;1474;51.460;7.150;2024-03-06T14:35:47;18.88;;;15.35;;
2928;SDS011;1474;51.460;7.150;2024-03-06T14:38:14;20.38;;;14.07;;
2928;SDS011;1474;51.460;7.150;2024-03-06T14:40:40;20.17;;;13.73;;
2928;SDS011;1474;51.460;7.150;2024-03-06T14:43:06;19.27;;;12.77;;
2928;SDS011;1474;51.460;7.150;2024-03-06T14:45:34;17.17;;;12.68;;
2928;SDS011;1474;51.460;7.150;2024-03-06T14:48:07;16.45;;;11.73;;
2928;SDS011;1474;51.460;7.150;2024-03-06T14:50:33;16.00;;;11.43;;
2928;SDS011;1474;51.460;7.150;2024-03-06T14:52:59;19.52;;;13.30;;
2928;SDS011;1474;51.460;7.150;2024-03-06T14:55:25;17.90;;;11.73;;
2928;SDS011;1474;51.460;7.150;2024-03-06T14:57:51;17.20;;;12.13;;
2928;SDS011;1474;51.460;7.150;2024-03-06T15:00:17;17.50;;;11.73;;
2928;SDS011;1474;51.460;7.150;2024-03-06T15:02:46;19.90;;;11.98;;
2928;SDS011;1474;51.460;7.150;2024-03-06T15:05:12;16.90;;;12.20;;
2928;SDS011;1474;51.460;7.150;2024-03-06T15:07:38;18.05;;;11.30;;
2928;SDS011;1474;51.460;7.150;2024-03-06T15:10:07;17.15;;;11.27;;
2928;SDS011;1474;51.460;7.150;2024-03-06T15:12:34;15.90;;;11.10;;
2928;SDS011;1474;51.460;7.150;2024-03-06T15:15:02;14.20;;;11.38;;
2928;SDS011;1474;51.460;7.150;2024-03-06T15:17:29;16.88;;;11.25;;
2928;SDS011;1474;51.460;7.150;2024-03-06T15:19:57;15.80;;;11.10;;
2928;SDS011;1474;51.460;7.150;2024-03-06T15:22:23;13.60;;;10.25;;
2928;SDS011;1474;51.460;7.150;2024-03-06T15:24:49;14.73;;;10.50;;
2928;SDS011;1474;51.460;7.150;2024-03-06T15:27:18;15.10;;;10.45;;
2928;SDS011;1474;51.460;7.150;2024-03-06T15:29:44;16.67;;;10.75;;
2928;SDS011;1474;51.460;7.150;2024-03-06T15:32:10;12.10;;;9.95;;
2928;SDS011;1474;51.460;7.150;2024-03-06T15:34:36;13.65;;;9.23;;
2928;SDS011;1474;51.460;7.150;2024-03-06T15:37:02;13.20;;;9.43;;
2928;SDS011;1474;51.460;7.150;2024-03-06T15:39:28;13.73;;;9.27;;